createdAt,value
2022-08-17T00:00:16.569Z,19.22
2022-08-17T00:02:57.768Z,19.19
2022-08-17T00:05:25.034Z,19.18
2022-08-17T00:07:52.122Z,19.18
2022-08-17T00:10:19.394Z,19.19
2022-08-17T00:12:46.766Z,19.18
2022-08-17T00:15:15.508Z,19.11
2022-08-17T00:17:47.772Z,19.10
2022-08-17T00:20:15.875Z,19.09
2022-08-17T00:22:45.664Z,19.03
2022-08-17T00:25:17.172Z,19.04
2022-08-17T00:27:44.267Z,18.98
2022-08-17T00:30:12.776Z,18.92
2022-08-17T00:33:13.721Z,18.86
2022-08-17T00:35:34.939Z,18.87
2022-08-17T00:38:04.280Z,18.87
2022-08-17T00:40:44.220Z,18.86
2022-08-17T00:43:15.064Z,18.89
2022-08-17T00:45:42.466Z,18.80
2022-08-17T00:48:29.531Z,18.83
2022-08-17T00:51:07.413Z,18.81
2022-08-17T00:53:38.991Z,18.76
2022-08-17T00:56:10.916Z,18.78
2022-08-17T00:58:41.245Z,18.82
2022-08-17T01:01:09.947Z,18.79
2022-08-17T01:03:38.895Z,18.82
2022-08-17T01:06:08.268Z,18.88
2022-08-17T01:08:36.662Z,18.84
2022-08-17T01:11:05.526Z,18.93
2022-08-17T01:13:40.718Z,18.93
2022-08-17T01:16:25.570Z,18.98
2022-08-17T01:19:02.473Z,18.97
2022-08-17T01:22:00.654Z,18.99
2022-08-17T01:24:27.833Z,18.89
2022-08-17T01:26:56.664Z,18.98
2022-08-17T01:29:26.020Z,18.92
2022-08-17T01:31:58.768Z,18.90
2022-08-17T01:34:31.569Z,18.91
2022-08-17T01:37:13.235Z,18.90
2022-08-17T01:39:58.274Z,18.75
2022-08-17T01:42:38.305Z,18.85
2022-08-17T01:45:12.461Z,18.85
2022-08-17T01:47:40.995Z,18.83
2022-08-17T01:50:16.368Z,18.82
2022-08-17T01:52:49.576Z,18.82
2022-08-17T01:55:27.291Z,18.78
2022-08-17T01:57:55.669Z,18.79
2022-08-17T02:00:24.073Z,18.79
2022-08-17T02:02:53.053Z,18.77
2022-08-17T02:05:20.752Z,18.78
2022-08-17T02:08:00.645Z,18.71
2022-08-17T02:10:34.109Z,18.68
2022-08-17T02:13:03.963Z,18.68
2022-08-17T02:15:35.403Z,18.67
2022-08-17T02:18:05.627Z,18.65
2022-08-17T02:20:42.126Z,18.66
2022-08-17T02:23:13.203Z,18.64
2022-08-17T02:25:43.539Z,18.67
2022-08-17T02:28:11.331Z,18.69
2022-08-17T02:31:01.410Z,18.69
2022-08-17T02:33:41.629Z,18.68
2022-08-17T02:36:09.791Z,18.80
2022-08-17T02:38:38.462Z,18.90
2022-08-17T02:41:08.803Z,19.22
2022-08-17T02:43:45.462Z,19.55
2022-08-17T02:46:14.791Z,19.88
2022-08-17T02:48:41.906Z,20.15
2022-08-17T02:51:09.331Z,20.43
2022-08-17T02:53:36.450Z,20.79
2022-08-17T02:56:04.383Z,21.12
2022-08-17T02:58:35.331Z,21.22
2022-08-17T03:01:06.247Z,21.22
2022-08-17T03:03:33.757Z,21.58
2022-08-17T03:06:01.538Z,22.04
2022-08-17T03:08:30.971Z,22.42
2022-08-17T03:10:58.025Z,22.83
2022-08-17T03:13:25.215Z,22.80
2022-08-17T03:15:52.348Z,22.67
2022-08-17T03:18:25.435Z,22.95
2022-08-17T03:20:58.693Z,23.74
2022-08-17T03:23:29.627Z,24.29
2022-08-17T03:25:58.484Z,24.22
2022-08-17T03:28:25.850Z,24.23
2022-08-17T03:30:53.157Z,24.83
2022-08-17T03:33:20.823Z,25.18
2022-08-17T03:35:48.450Z,24.15
2022-08-17T03:38:17.476Z,23.29
2022-08-17T03:40:56.753Z,23.88
2022-08-17T03:43:29.829Z,24.79
2022-08-17T03:46:34.066Z,25.54
2022-08-17T03:49:26.868Z,26.49
2022-08-17T03:52:13.791Z,27.21
2022-08-17T03:55:00.909Z,27.79
2022-08-17T03:57:29.280Z,27.89
2022-08-17T03:59:57.751Z,27.86
2022-08-17T04:02:29.307Z,26.85
2022-08-17T04:04:56.979Z,25.69
2022-08-17T04:07:26.027Z,25.08
2022-08-17T04:09:53.341Z,25.28
2022-08-17T04:12:22.144Z,25.83
2022-08-17T04:14:53.070Z,26.97
2022-08-17T04:17:24.875Z,28.04
2022-08-17T04:19:52.431Z,29.50
2022-08-17T04:22:30.152Z,30.28
2022-08-17T04:25:09.705Z,30.80
2022-08-17T04:27:37.998Z,31.12
2022-08-17T04:30:07.439Z,32.06
2022-08-17T04:33:06.358Z,32.23
2022-08-17T04:35:44.163Z,33.26
2022-08-17T04:38:14.706Z,34.10
2022-08-17T04:41:01.825Z,35.03
2022-08-17T04:43:31.071Z,36.27
2022-08-17T04:46:04.899Z,35.60
2022-08-17T04:48:37.995Z,34.51
2022-08-17T04:51:10.197Z,35.11
2022-08-17T04:53:39.656Z,34.37
2022-08-17T04:56:16.616Z,34.47
2022-08-17T04:58:50.160Z,34.89
2022-08-17T05:01:24.065Z,35.66
2022-08-17T05:03:57.295Z,36.40
2022-08-17T05:06:24.706Z,37.41
2022-08-17T05:08:52.363Z,37.13
2022-08-17T05:11:19.620Z,36.91
2022-08-17T05:13:50.206Z,36.21
2022-08-17T05:16:18.696Z,37.36
2022-08-17T05:18:46.223Z,38.85
2022-08-17T05:21:14.972Z,38.71
2022-08-17T05:23:47.156Z,39.07
2022-08-17T05:26:26.773Z,38.71
2022-08-17T05:29:00.578Z,38.99
2022-08-17T05:31:31.218Z,39.56
2022-08-17T05:33:59.129Z,39.38
2022-08-17T05:36:43.414Z,39.64
2022-08-17T05:39:16.249Z,40.09
2022-08-17T05:41:47.299Z,39.88
2022-08-17T05:44:16.584Z,40.08
2022-08-17T05:46:49.131Z,40.88
2022-08-17T05:49:21.194Z,41.62
2022-08-17T05:51:55.550Z,41.92
2022-08-17T05:54:53.883Z,42.23
2022-08-17T05:57:56.052Z,41.18
2022-08-17T06:00:26.461Z,41.76
2022-08-17T06:03:12.997Z,43.41
2022-08-17T06:06:00.199Z,43.74
2022-08-17T06:08:56.876Z,42.86
2022-08-17T06:11:43.681Z,44.06
2022-08-17T06:14:31.697Z,43.44
2022-08-17T06:17:13.572Z,44.02
2022-08-17T06:20:14.365Z,42.89
2022-08-17T06:22:46.362Z,42.69
2022-08-17T06:25:32.237Z,42.00
2022-08-17T06:28:08.723Z,42.00
2022-08-17T06:30:59.855Z,41.19
2022-08-17T06:33:35.282Z,40.96
2022-08-17T06:36:24.992Z,40.11
2022-08-17T06:39:25.104Z,39.52
2022-08-17T06:42:07.532Z,38.48
2022-08-17T06:44:54.003Z,39.00
2022-08-17T06:47:31.173Z,38.46
2022-08-17T06:50:04.279Z,36.77
2022-08-17T06:52:46.906Z,35.92
2022-08-17T06:55:24.816Z,35.02
2022-08-17T06:57:58.222Z,34.43
2022-08-17T07:00:37.010Z,33.61
2022-08-17T07:03:23.787Z,32.42
2022-08-17T07:06:12.597Z,31.71
2022-08-17T07:09:03.558Z,30.94
2022-08-17T07:11:38.575Z,30.36
2022-08-17T07:14:38.583Z,29.15
2022-08-17T07:17:18.563Z,28.76
2022-08-17T07:19:49.422Z,28.55
2022-08-17T07:22:50.357Z,28.44
2022-08-17T07:25:23.547Z,28.24
2022-08-17T07:27:56.342Z,27.81
2022-08-17T07:30:27.111Z,27.62
2022-08-17T07:32:59.447Z,27.60
2022-08-17T07:35:37.762Z,27.37
2022-08-17T07:38:26.796Z,27.11
2022-08-17T07:41:04.871Z,27.22
2022-08-17T07:43:37.701Z,27.28
2022-08-17T07:46:30.086Z,27.41
2022-08-17T07:49:03.634Z,27.49
2022-08-17T07:51:34.000Z,27.52
2022-08-17T07:54:22.711Z,27.47
2022-08-17T07:57:04.449Z,27.29
2022-08-17T07:59:36.795Z,27.42
2022-08-17T08:02:38.409Z,27.38
2022-08-17T08:05:13.002Z,27.43
2022-08-17T08:07:56.545Z,27.42
2022-08-17T08:10:36.872Z,27.58
2022-08-17T08:13:23.935Z,27.42
2022-08-17T08:15:55.862Z,27.47
2022-08-17T08:18:38.673Z,27.55
2022-08-17T08:21:42.235Z,27.58
2022-08-17T08:24:30.148Z,27.70
2022-08-17T08:27:36.858Z,27.75
2022-08-17T08:30:16.538Z,27.87
2022-08-17T08:33:07.757Z,27.99
2022-08-17T08:35:34.774Z,27.95
2022-08-17T08:38:16.967Z,27.98
2022-08-17T08:41:01.565Z,28.02
2022-08-17T08:43:43.887Z,28.16
2022-08-17T08:46:29.326Z,28.10
2022-08-17T08:50:09.236Z,28.25
2022-08-17T08:53:10.223Z,28.21
2022-08-17T08:56:00.554Z,28.09
2022-08-17T08:58:54.041Z,28.04
2022-08-17T09:01:38.268Z,27.91
2022-08-17T09:04:26.533Z,28.01
2022-08-17T09:07:22.432Z,28.09
2022-08-17T09:09:59.654Z,28.30
2022-08-17T09:12:48.950Z,28.30
2022-08-17T09:15:35.069Z,28.35
2022-08-17T09:19:00.068Z,28.54
2022-08-17T09:21:07.984Z,28.76
2022-08-17T09:23:59.645Z,28.59
2022-08-17T09:26:35.326Z,28.50
2022-08-17T09:29:08.775Z,28.58
2022-08-17T09:31:48.951Z,28.55
2022-08-17T09:34:29.579Z,28.61
2022-08-17T09:37:03.641Z,28.51
2022-08-17T09:39:41.816Z,28.44
2022-08-17T09:42:32.423Z,28.48
2022-08-17T09:45:23.818Z,28.57
2022-08-17T09:48:05.081Z,28.62
2022-08-17T09:51:03.771Z,28.56
2022-08-17T09:53:32.257Z,28.68
2022-08-17T09:56:27.755Z,28.67
2022-08-17T09:59:38.710Z,28.59
2022-08-17T10:02:45.043Z,28.71
2022-08-17T10:05:49.542Z,28.75
2022-08-17T10:09:09.057Z,28.62
2022-08-17T10:12:04.645Z,28.61
2022-08-17T10:15:09.899Z,28.59
2022-08-17T10:18:03.839Z,28.70
2022-08-17T10:21:21.727Z,28.83
2022-08-17T10:24:13.390Z,28.88
2022-08-17T10:26:56.044Z,28.91
2022-08-17T10:29:49.254Z,29.02
2022-08-17T10:32:32.988Z,29.20
2022-08-17T10:35:26.131Z,29.10
2022-08-17T10:37:56.147Z,29.05
2022-08-17T10:40:45.606Z,29.15
2022-08-17T10:43:15.613Z,29.19
2022-08-17T10:46:30.043Z,29.04
2022-08-17T10:49:23.899Z,28.98
2022-08-17T10:51:57.113Z,28.91
2022-08-17T10:54:39.214Z,28.89
2022-08-17T10:57:28.402Z,28.88
2022-08-17T10:59:57.069Z,28.91
2022-08-17T11:02:40.849Z,28.87
2022-08-17T11:05:20.671Z,28.91
2022-08-17T11:08:26.568Z,29.03
2022-08-17T11:10:59.031Z,28.88
2022-08-17T11:13:38.356Z,28.82
2022-08-17T11:16:33.336Z,28.80
2022-08-17T11:19:30.825Z,28.90
2022-08-17T11:22:31.311Z,28.89
2022-08-17T11:25:35.799Z,29.05
2022-08-17T11:28:25.071Z,28.88
2022-08-17T11:30:59.721Z,28.80
2022-08-17T11:33:30.325Z,28.90
2022-08-17T11:36:18.222Z,29.03
2022-08-17T11:38:46.354Z,29.14
2022-08-17T11:41:16.427Z,29.12
2022-08-17T11:44:04.880Z,29.16
2022-08-17T11:47:08.868Z,28.95
2022-08-17T11:50:00.593Z,28.95
2022-08-17T11:52:45.948Z,29.12
2022-08-17T11:55:41.766Z,29.30
2022-08-17T11:58:29.494Z,29.37
2022-08-17T12:00:59.027Z,29.32
2022-08-17T12:03:55.392Z,29.32
2022-08-17T12:06:54.989Z,29.24
2022-08-17T12:09:26.491Z,29.08
2022-08-17T12:12:12.962Z,29.06
2022-08-17T12:15:09.542Z,28.73
2022-08-17T12:17:40.815Z,28.92
2022-08-17T12:20:24.201Z,29.02
2022-08-17T12:23:04.984Z,29.14
2022-08-17T12:25:47.552Z,29.03
2022-08-17T12:28:30.588Z,29.04
2022-08-17T12:31:02.577Z,28.92
2022-08-17T12:33:30.491Z,29.03
2022-08-17T12:36:04.645Z,29.20
2022-08-17T12:38:35.220Z,29.22
2022-08-17T12:41:29.295Z,29.23
2022-08-17T12:44:31.068Z,29.15
2022-08-17T12:47:21.064Z,29.11
2022-08-17T12:49:51.733Z,28.94
2022-08-17T12:52:24.892Z,29.02
2022-08-17T12:54:57.477Z,29.00
2022-08-17T12:57:33.235Z,28.73
2022-08-17T13:00:26.152Z,28.87
2022-08-17T13:03:07.819Z,28.84
2022-08-17T13:05:41.990Z,28.84
2022-08-17T13:08:24.733Z,28.83
2022-08-17T13:11:24.340Z,28.76
2022-08-17T13:13:55.276Z,28.66
2022-08-17T13:16:30.900Z,28.60
2022-08-17T13:19:03.789Z,28.56
2022-08-17T13:21:33.335Z,28.44
2022-08-17T13:24:13.920Z,28.51
2022-08-17T13:27:08.182Z,28.37
2022-08-17T13:29:44.625Z,28.38
2022-08-17T13:32:13.702Z,28.41
2022-08-17T13:34:51.384Z,28.38
2022-08-17T13:37:36.282Z,28.36
2022-08-17T13:40:09.351Z,28.31
2022-08-17T13:42:52.454Z,28.24
2022-08-17T13:45:36.886Z,28.21
2022-08-17T13:48:14.549Z,28.17
2022-08-17T13:50:56.731Z,28.16
2022-08-17T13:53:33.118Z,28.16
2022-08-17T13:56:38.056Z,28.18
2022-08-17T13:59:06.687Z,28.15
2022-08-17T14:01:54.180Z,28.08
2022-08-17T14:04:29.452Z,28.04
2022-08-17T14:07:08.892Z,28.13
2022-08-17T14:09:40.084Z,28.07
2022-08-17T14:12:11.794Z,28.13
2022-08-17T14:14:39.667Z,28.12
2022-08-17T14:17:07.873Z,28.00
2022-08-17T14:19:36.391Z,28.07
2022-08-17T14:22:05.132Z,28.04
2022-08-17T14:24:41.278Z,27.96
2022-08-17T14:27:12.459Z,27.96
2022-08-17T14:29:41.357Z,27.90
2022-08-17T14:32:24.927Z,27.72
2022-08-17T14:34:52.707Z,27.74
2022-08-17T14:37:21.141Z,27.79
2022-08-17T14:39:48.531Z,27.79
2022-08-17T14:42:17.677Z,27.76
2022-08-17T14:44:44.840Z,27.65
2022-08-17T14:47:16.017Z,27.70
2022-08-17T14:49:43.846Z,27.71
2022-08-17T14:52:18.424Z,27.69
2022-08-17T14:54:46.028Z,27.62
2022-08-17T14:57:25.246Z,27.54
2022-08-17T15:00:01.532Z,27.56
2022-08-17T15:02:48.934Z,27.38
2022-08-17T15:05:17.494Z,27.44
2022-08-17T15:07:44.775Z,27.41
2022-08-17T15:10:13.676Z,27.36
2022-08-17T15:12:41.602Z,27.27
2022-08-17T15:15:12.128Z,27.24
2022-08-17T15:17:43.846Z,27.19
2022-08-17T15:20:16.797Z,27.12
2022-08-17T15:22:45.665Z,27.03
2022-08-17T15:25:13.158Z,27.01
2022-08-17T15:27:40.605Z,26.95
2022-08-17T15:30:10.107Z,26.89
2022-08-17T15:32:40.707Z,26.76
2022-08-17T15:35:11.879Z,26.80
2022-08-17T15:37:40.474Z,26.78
2022-08-17T15:40:09.717Z,26.75
2022-08-17T15:42:38.633Z,26.64
2022-08-17T15:45:13.636Z,26.71
2022-08-17T15:47:40.987Z,26.64
2022-08-17T15:50:09.329Z,26.52
2022-08-17T15:52:40.342Z,26.56
2022-08-17T15:55:12.620Z,26.51
2022-08-17T15:57:40.235Z,26.41
2022-08-17T16:00:08.829Z,26.39
2022-08-17T16:03:44.388Z,26.33
2022-08-17T16:05:31.229Z,26.29
2022-08-17T16:07:59.933Z,26.22
2022-08-17T16:10:35.009Z,26.14
2022-08-17T16:13:04.321Z,26.06
2022-08-17T16:15:32.121Z,25.99
2022-08-17T16:17:59.609Z,25.90
2022-08-17T16:20:27.495Z,25.81
2022-08-17T16:22:55.145Z,25.72
2022-08-17T16:25:47.171Z,25.63
2022-08-17T16:28:17.674Z,25.51
2022-08-17T16:30:45.560Z,25.37
2022-08-17T16:33:12.928Z,25.41
2022-08-17T16:35:40.050Z,25.37
2022-08-17T16:38:07.457Z,25.31
2022-08-17T16:40:36.220Z,25.27
2022-08-17T16:43:07.132Z,25.23
2022-08-17T16:45:36.966Z,25.16
2022-08-17T16:48:04.729Z,25.12
2022-08-17T16:50:32.689Z,25.08
2022-08-17T16:53:10.774Z,25.07
2022-08-17T16:55:38.855Z,25.02
2022-08-17T16:58:08.881Z,24.99
2022-08-17T17:00:36.875Z,24.87
2022-08-17T17:03:31.812Z,24.85
2022-08-17T17:06:13.761Z,24.80
2022-08-17T17:08:49.257Z,24.70
2022-08-17T17:11:25.163Z,24.68
2022-08-17T17:13:59.724Z,24.60
2022-08-17T17:17:15.141Z,24.56
2022-08-17T17:20:08.094Z,24.48
2022-08-17T17:22:43.789Z,24.36
2022-08-17T17:25:17.540Z,24.30
2022-08-17T17:28:35.778Z,24.25
2022-08-17T17:31:23.866Z,24.18
2022-08-17T17:34:00.542Z,24.20
2022-08-17T17:36:48.436Z,24.16
2022-08-17T17:39:43.882Z,24.15
2022-08-17T17:42:19.883Z,24.09
2022-08-17T17:44:55.782Z,24.07
2022-08-17T17:47:23.032Z,24.06
2022-08-17T17:49:50.465Z,24.01
2022-08-17T17:52:20.318Z,23.95
2022-08-17T17:54:48.060Z,23.88
2022-08-17T17:57:39.538Z,23.91
2022-08-17T18:00:24.762Z,23.82
2022-08-17T18:03:01.341Z,23.76
2022-08-17T18:05:49.019Z,23.71
2022-08-17T18:08:34.107Z,23.66
2022-08-17T18:11:13.228Z,23.62
2022-08-17T18:14:20.043Z,23.56
2022-08-17T18:16:55.731Z,23.49
2022-08-17T18:19:25.692Z,23.50
2022-08-17T18:22:14.913Z,23.43
2022-08-17T18:24:45.962Z,23.36
2022-08-17T18:27:30.481Z,23.28
2022-08-17T18:29:59.870Z,23.25
2022-08-17T18:32:36.793Z,23.20
2022-08-17T18:35:28.130Z,23.17
2022-08-17T18:38:19.972Z,23.09
2022-08-17T18:40:58.175Z,22.98
2022-08-17T18:43:44.438Z,22.88
2022-08-17T18:46:28.909Z,22.97
2022-08-17T18:49:25.215Z,22.92
2022-08-17T18:52:07.842Z,22.91
2022-08-17T18:54:36.283Z,22.83
2022-08-17T18:57:05.336Z,22.74
2022-08-17T18:59:38.787Z,22.91
2022-08-17T19:02:45.652Z,22.93
2022-08-17T19:05:28.946Z,22.87
2022-08-17T19:08:13.913Z,22.91
2022-08-17T19:10:46.176Z,22.87
2022-08-17T19:13:34.212Z,22.89
2022-08-17T19:16:18.371Z,22.88
2022-08-17T19:18:58.828Z,22.88
2022-08-17T19:21:56.239Z,22.91
2022-08-17T19:24:26.609Z,22.97
2022-08-17T19:27:02.417Z,22.98
2022-08-17T19:29:51.912Z,22.95
2022-08-17T19:32:27.022Z,22.91
2022-08-17T19:34:55.339Z,22.90
2022-08-17T19:38:01.538Z,22.91
2022-08-17T19:40:52.747Z,22.86
2022-08-17T19:43:42.190Z,22.78
2022-08-17T19:46:13.952Z,22.72
2022-08-17T19:48:46.984Z,22.69
2022-08-17T19:51:31.616Z,22.63
2022-08-17T19:54:10.562Z,22.54
2022-08-17T19:56:58.927Z,22.48
2022-08-17T20:00:09.097Z,22.41
2022-08-17T20:02:52.921Z,22.36
2022-08-17T20:06:36.801Z,22.32
2022-08-17T20:09:16.711Z,22.26
2022-08-17T20:11:49.129Z,22.17
2022-08-17T20:14:24.770Z,22.17
2022-08-17T20:16:52.526Z,22.15
2022-08-17T20:19:45.649Z,22.10
2022-08-17T20:22:21.239Z,22.12
2022-08-17T20:24:51.409Z,22.12
2022-08-17T20:27:32.126Z,22.09
2022-08-17T20:30:01.801Z,22.10
2022-08-17T20:32:36.901Z,22.01
2022-08-17T20:35:26.210Z,22.07
2022-08-17T20:37:55.700Z,22.06
2022-08-17T20:40:28.540Z,22.01
2022-08-17T20:42:57.408Z,22.03
2022-08-17T20:45:26.407Z,22.02
2022-08-17T20:48:23.997Z,22.01
2022-08-17T20:50:56.273Z,21.92
2022-08-17T20:53:48.293Z,21.89
2022-08-17T20:56:44.583Z,21.83
2022-08-17T20:59:21.077Z,21.78
2022-08-17T21:02:19.115Z,21.71
2022-08-17T21:04:50.013Z,21.69
2022-08-17T21:07:43.733Z,21.63
2022-08-17T21:10:26.393Z,21.56
2022-08-17T21:13:10.314Z,21.51
2022-08-17T21:15:57.395Z,21.50
2022-08-17T21:18:49.825Z,21.44
2022-08-17T21:21:26.100Z,21.43
2022-08-17T21:24:19.467Z,21.38
2022-08-17T21:27:26.540Z,21.29
2022-08-17T21:30:13.274Z,21.27
2022-08-17T21:32:42.264Z,21.19
2022-08-17T21:35:28.730Z,21.20
2022-08-17T21:38:02.500Z,21.08
2022-08-17T21:40:31.413Z,21.09
2022-08-17T21:43:17.134Z,20.99
2022-08-17T21:45:55.589Z,20.85
2022-08-17T21:48:25.560Z,20.81
2022-08-17T21:51:01.982Z,20.83
2022-08-17T21:53:36.794Z,20.76
2022-08-17T21:56:05.182Z,20.75
2022-08-17T21:58:40.238Z,20.70
2022-08-17T22:01:13.682Z,20.69
2022-08-17T22:03:47.893Z,20.61
2022-08-17T22:06:33.552Z,20.62
2022-08-17T22:09:22.478Z,20.57
2022-08-17T22:11:57.889Z,20.54
2022-08-17T22:14:52.247Z,20.48
2022-08-17T22:17:35.538Z,20.48
2022-08-17T22:20:14.415Z,20.42
2022-08-17T22:23:09.120Z,20.44
2022-08-17T22:25:39.955Z,20.38
2022-08-17T22:28:12.936Z,20.35
2022-08-17T22:30:42.249Z,20.28
2022-08-17T22:33:39.708Z,20.22
2022-08-17T22:36:09.985Z,20.20
2022-08-17T22:38:38.295Z,20.17
2022-08-17T22:41:17.510Z,20.15
2022-08-17T22:43:45.024Z,20.07
2022-08-17T22:46:12.831Z,20.10
2022-08-17T22:48:48.697Z,20.12
2022-08-17T22:51:21.450Z,20.08
2022-08-17T22:54:08.984Z,20.04
2022-08-17T22:56:55.785Z,19.97
2022-08-17T22:59:43.833Z,20.01
2022-08-17T23:02:16.349Z,19.93
2022-08-17T23:04:47.879Z,19.92
2022-08-17T23:07:16.003Z,19.89
2022-08-17T23:09:43.825Z,19.82
2022-08-17T23:12:16.091Z,19.83
2022-08-17T23:14:45.799Z,19.81
2022-08-17T23:17:13.573Z,19.70
2022-08-17T23:19:40.844Z,19.77
2022-08-17T23:22:09.702Z,19.75
2022-08-17T23:24:46.445Z,19.67
2022-08-17T23:27:13.853Z,19.70
2022-08-17T23:29:42.293Z,19.74
2022-08-17T23:32:13.674Z,19.73
2022-08-17T23:34:42.528Z,19.67
2022-08-17T23:37:11.454Z,19.58
2022-08-17T23:39:39.531Z,19.54
2022-08-17T23:42:10.711Z,19.60
2022-08-17T23:44:40.675Z,19.59
2022-08-17T23:47:08.172Z,19.50
2022-08-17T23:49:36.444Z,19.55
2022-08-17T23:52:07.094Z,19.53
2022-08-17T23:54:43.833Z,19.46
2022-08-17T23:57:13.862Z,19.49
2022-08-17T23:59:43.917Z,19.50
